CheckWX is a tool to help pilots better visualize weather data.  It is not intended as a substitute for an official pre-flight weather briefing.

16:51:21 UTC

GVBA METAR
Rabil Airport
Rabil, Cape Verde
Current

51 mins ago

GVBA 051600Z 03017KT 9999 FEW015 26/16 Q1015 NOSIG
Observed
Apr-5 @ 16:00 UTC
Wind
  • 030° at 17 KTS
Visibility
10,000+ meters
Flight Rules
VFR
Cloud Levels
  • Few at 1,500' AGL
Temperature
26°C / 79°F
Dewpoint
16°C / 61°F
Humidity
54%
Altimeter
29.97" Hg
Pressure
1014.92 hPa
Previous

2 hours ago

GVBA 051500Z 03018KT 9999 SCT015 26/16 Q1016 NOSIG
Observed
Apr-5 @ 15:00 UTC
Wind
  • 030° at 18 KTS
Visibility
10,000+ meters
Flight Rules
VFR
Cloud Levels
  • Scattered at 1,500' AGL
Temperature
26°C / 79°F
Dewpoint
16°C / 61°F
Humidity
54%
Altimeter
30" Hg
Pressure
1015.92 hPa
Previous

3 hours ago

GVBA 051400Z 03017KT 9999 SCT015 26/16 Q1016 NOSIG
Observed
Apr-5 @ 14:00 UTC
Wind
  • 030° at 17 KTS
Visibility
10,000+ meters
Flight Rules
VFR
Cloud Levels
  • Scattered at 1,500' AGL
Temperature
26°C / 79°F
Dewpoint
16°C / 61°F
Humidity
54%
Altimeter
30" Hg
Pressure
1015.92 hPa